createdAt,value
2018-09-11T00:01:20.191Z,70.50
2018-09-11T00:03:48.885Z,70.70
2018-09-11T00:06:17.360Z,71.10
2018-09-11T00:08:45.732Z,70.70
2018-09-11T00:11:14.247Z,71.10
2018-09-11T00:13:42.735Z,70.50
2018-09-11T00:16:11.095Z,70.50
2018-09-11T00:18:39.486Z,70.70
2018-09-11T00:21:08.346Z,70.80
2018-09-11T00:23:36.908Z,70.40
2018-09-11T00:26:05.330Z,70.50
2018-09-11T00:28:33.992Z,69.80
2018-09-11T00:31:02.540Z,70.60
2018-09-11T00:33:35.113Z,69.90
2018-09-11T00:36:03.539Z,70.10
2018-09-11T00:38:32.069Z,70.40
2018-09-11T00:41:00.500Z,70.60
2018-09-11T00:43:29.019Z,70.70
2018-09-11T00:45:57.447Z,70.80
2018-09-11T00:48:25.927Z,70.60
2018-09-11T00:50:54.683Z,70.90
2018-09-11T00:53:23.096Z,70.40
2018-09-11T00:55:51.495Z,70.50
2018-09-11T00:58:20.077Z,70.70
2018-09-11T01:00:48.896Z,70.50
2018-09-11T01:03:17.294Z,70.30
2018-09-11T01:05:45.743Z,70.70
2018-09-11T01:08:17.279Z,69.40
2018-09-11T01:10:45.868Z,70.40
2018-09-11T01:13:14.510Z,70.60
2018-09-11T01:15:42.892Z,70.00
2018-09-11T01:18:11.269Z,70.00
2018-09-11T01:20:39.669Z,70.40
2018-09-11T01:23:08.124Z,70.40
2018-09-11T01:25:37.073Z,70.50
2018-09-11T01:28:05.439Z,69.70
2018-09-11T01:30:33.994Z,69.60
2018-09-11T01:33:02.465Z,70.40
2018-09-11T01:35:30.940Z,70.40
2018-09-11T01:37:59.414Z,70.60
2018-09-11T01:40:28.160Z,71.00
2018-09-11T01:42:56.601Z,70.20
2018-09-11T01:45:25.022Z,69.80
2018-09-11T01:47:53.374Z,69.70
2018-09-11T01:50:21.847Z,68.80
2018-09-11T01:52:50.329Z,69.20
2018-09-11T01:55:18.824Z,69.10
2018-09-11T01:57:47.444Z,69.50
2018-09-11T02:00:17.616Z,69.90
2018-09-11T02:02:47.347Z,70.20
2018-09-11T02:05:15.876Z,70.80
2018-09-11T02:07:44.442Z,70.90
2018-09-11T02:10:13.398Z,70.00
2018-09-11T02:12:41.877Z,69.60
2018-09-11T02:15:11.249Z,69.00
2018-09-11T02:17:40.237Z,70.80
2018-09-11T02:20:08.924Z,69.50
2018-09-11T02:22:37.432Z,68.80
2018-09-11T02:25:05.975Z,70.10
2018-09-11T02:27:34.368Z,69.70
2018-09-11T02:30:02.825Z,69.00
2018-09-11T02:32:31.363Z,69.50
2018-09-11T02:34:59.870Z,69.20
2018-09-11T02:37:28.308Z,68.80
2018-09-11T02:39:56.815Z,68.90
2018-09-11T02:42:25.297Z,68.90
2018-09-11T02:44:53.764Z,68.40
2018-09-11T02:47:22.188Z,68.40
2018-09-11T02:49:50.715Z,69.60
2018-09-11T02:52:19.151Z,69.60
2018-09-11T02:54:47.603Z,68.80
2018-09-11T02:57:15.961Z,68.40
2018-09-11T02:59:44.392Z,69.30
2018-09-11T03:02:12.970Z,69.70
2018-09-11T03:04:41.764Z,68.60
2018-09-11T03:07:10.305Z,68.50
2018-09-11T03:09:38.716Z,68.30
2018-09-11T03:12:07.575Z,68.80
2018-09-11T03:14:36.151Z,68.80
2018-09-11T03:17:04.589Z,68.60
2018-09-11T03:19:32.950Z,68.40
2018-09-11T03:22:01.373Z,70.30
2018-09-11T03:24:29.809Z,69.00
2018-09-11T03:26:58.158Z,68.30
2018-09-11T03:29:26.593Z,69.10
2018-09-11T03:31:55.081Z,68.50
2018-09-11T03:34:23.710Z,68.10
2018-09-11T03:36:52.235Z,69.90
2018-09-11T03:39:20.693Z,70.40
2018-09-11T03:41:49.060Z,68.30
2018-09-11T03:44:17.466Z,68.90
2018-09-11T03:46:45.836Z,68.20
2018-09-11T03:49:14.440Z,68.60
2018-09-11T03:51:42.879Z,69.90
2018-09-11T03:54:11.360Z,68.60
2018-09-11T03:56:39.873Z,68.90
2018-09-11T03:59:08.419Z,69.40
2018-09-11T04:01:36.804Z,69.20
2018-09-11T04:04:05.302Z,68.50
2018-09-11T04:06:34.278Z,68.10
2018-09-11T04:09:03.072Z,68.60
2018-09-11T04:11:31.593Z,68.50
2018-09-11T04:14:00.040Z,68.40
2018-09-11T04:16:28.520Z,68.30
2018-09-11T04:18:56.988Z,69.10
2018-09-11T04:21:25.448Z,68.40
2018-09-11T04:23:54.058Z,69.60
2018-09-11T04:26:22.464Z,68.90
2018-09-11T04:28:51.135Z,68.80
2018-09-11T04:31:19.721Z,68.00
2018-09-11T04:33:48.325Z,68.30
2018-09-11T04:36:17.441Z,69.10
2018-09-11T04:38:46.132Z,69.10
2018-09-11T04:41:14.663Z,69.40
2018-09-11T04:43:43.225Z,68.50
2018-09-11T04:46:12.750Z,68.30
2018-09-11T04:48:43.414Z,68.40
2018-09-11T04:51:12.016Z,69.30
2018-09-11T04:53:40.421Z,68.10
2018-09-11T04:56:09.006Z,69.10
2018-09-11T04:58:37.761Z,68.30
2018-09-11T05:01:06.517Z,68.40
2018-09-11T05:03:34.951Z,68.30
2018-09-11T05:06:03.706Z,68.10
2018-09-11T05:08:32.321Z,67.90
2018-09-11T05:11:00.861Z,68.50
2018-09-11T05:13:29.479Z,68.40
2018-09-11T05:15:57.971Z,68.50
2018-09-11T05:18:26.625Z,68.70
2018-09-11T05:20:55.113Z,68.70
2018-09-11T05:23:23.656Z,68.10
2018-09-11T05:25:52.095Z,68.70
2018-09-11T05:28:20.621Z,68.60
2018-09-11T05:30:49.155Z,68.20
2018-09-11T05:33:17.637Z,68.10
2018-09-11T05:35:46.598Z,68.30
2018-09-11T05:38:15.304Z,68.10
2018-09-11T05:40:43.807Z,68.10
2018-09-11T05:43:12.300Z,68.20
2018-09-11T05:45:40.690Z,68.30
2018-09-11T05:48:09.255Z,68.10
2018-09-11T05:50:37.776Z,67.90
2018-09-11T05:53:06.509Z,67.80
2018-09-11T05:55:34.894Z,67.90
2018-09-11T05:58:03.669Z,68.30
2018-09-11T06:00:32.080Z,68.00
2018-09-11T06:03:00.528Z,68.70
2018-09-11T06:05:29.206Z,67.90
2018-09-11T06:07:57.696Z,68.40
2018-09-11T06:10:26.301Z,69.40
2018-09-11T06:12:54.932Z,68.10
2018-09-11T06:15:23.345Z,67.90
2018-09-11T06:17:51.706Z,68.00
2018-09-11T06:20:20.113Z,67.90
2018-09-11T06:22:48.587Z,69.30
2018-09-11T06:25:17.529Z,68.80
2018-09-11T06:27:46.407Z,69.00
2018-09-11T06:30:14.832Z,68.40
2018-09-11T06:32:43.236Z,68.80
2018-09-11T06:35:11.785Z,70.10
2018-09-11T06:37:40.263Z,70.10
2018-09-11T06:40:11.673Z,70.40
2018-09-11T06:42:40.452Z,70.20
2018-09-11T06:45:09.025Z,69.40
2018-09-11T06:47:37.460Z,69.50
2018-09-11T06:50:06.153Z,68.60
2018-09-11T06:52:34.696Z,68.80
2018-09-11T06:55:03.180Z,68.90
2018-09-11T06:57:31.656Z,70.40
2018-09-11T07:00:00.065Z,70.20
2018-09-11T07:02:28.587Z,70.20
2018-09-11T07:04:57.049Z,70.50
2018-09-11T07:07:25.645Z,70.80
2018-09-11T07:09:54.195Z,70.70
2018-09-11T07:12:22.755Z,70.70
2018-09-11T07:14:51.267Z,70.10
2018-09-11T07:17:19.713Z,70.40
2018-09-11T07:19:48.243Z,70.30
2018-09-11T07:22:17.037Z,70.80
2018-09-11T07:24:45.598Z,70.70
2018-09-11T07:27:14.166Z,71.10
2018-09-11T07:29:42.686Z,70.60
2018-09-11T07:32:11.129Z,71.00
2018-09-11T07:34:39.615Z,70.50
2018-09-11T07:37:08.149Z,69.90
2018-09-11T07:39:36.573Z,70.30
2018-09-11T07:42:04.946Z,70.60
2018-09-11T07:44:33.333Z,70.60
2018-09-11T07:47:01.767Z,70.70
2018-09-11T07:49:30.376Z,70.90
2018-09-11T07:51:58.764Z,70.80
2018-09-11T07:54:27.520Z,70.20
2018-09-11T07:56:55.995Z,71.00
2018-09-11T07:59:24.356Z,71.00
2018-09-11T08:01:53.004Z,71.30
2018-09-11T08:04:21.372Z,70.70
2018-09-11T08:06:50.262Z,71.10
2018-09-11T08:09:18.879Z,71.20
2018-09-11T08:11:47.457Z,70.70
2018-09-11T08:14:16.180Z,70.80
2018-09-11T08:16:44.616Z,70.30
2018-09-11T08:19:12.975Z,70.60
2018-09-11T08:21:41.387Z,70.10
2018-09-11T08:24:09.964Z,70.50
2018-09-11T08:26:38.613Z,70.90
2018-09-11T08:29:07.089Z,71.00
2018-09-11T08:31:35.552Z,71.10
2018-09-11T08:34:04.029Z,70.60
2018-09-11T08:36:32.980Z,71.00
2018-09-11T08:39:01.540Z,70.80
2018-09-11T08:41:30.287Z,71.00
2018-09-11T08:43:58.696Z,71.10
2018-09-11T08:46:27.222Z,70.40
2018-09-11T08:48:59.544Z,70.50
2018-09-11T08:51:28.019Z,70.10
2018-09-11T08:53:56.575Z,71.10
2018-09-11T08:56:25.033Z,70.50
2018-09-11T08:58:53.508Z,70.50
2018-09-11T09:01:21.991Z,70.70
2018-09-11T09:03:50.508Z,70.70
2018-09-11T09:06:18.948Z,71.30
2018-09-11T09:08:47.364Z,71.20
2018-09-11T09:11:15.877Z,71.00
2018-09-11T09:13:44.436Z,70.60
2018-09-11T09:16:12.970Z,71.00
2018-09-11T09:18:41.601Z,71.10
2018-09-11T09:21:10.036Z,70.70
2018-09-11T09:23:38.549Z,70.70
2018-09-11T09:26:07.017Z,70.60
2018-09-11T09:28:35.479Z,71.10
2018-09-11T09:31:04.105Z,70.60
2018-09-11T09:33:32.712Z,70.60
2018-09-11T09:36:01.150Z,70.50
2018-09-11T09:38:35.564Z,71.00
2018-09-11T09:41:04.168Z,70.60
2018-09-11T09:43:32.719Z,70.90
2018-09-11T09:46:01.486Z,71.10
2018-09-11T09:48:30.140Z,71.10
2018-09-11T09:50:58.681Z,70.40
2018-09-11T09:53:27.067Z,70.40
2018-09-11T09:55:59.620Z,71.00
2018-09-11T09:58:28.242Z,71.10
2018-09-11T10:01:01.448Z,71.10
2018-09-11T10:03:30.414Z,70.90
2018-09-11T10:05:58.836Z,70.70
2018-09-11T10:08:27.537Z,70.90
2018-09-11T10:10:55.888Z,70.60
2018-09-11T10:13:24.297Z,70.90
2018-09-11T10:15:52.785Z,70.40
2018-09-11T10:18:21.435Z,71.00
2018-09-11T10:20:49.792Z,70.60
2018-09-11T10:23:18.202Z,70.60
2018-09-11T10:25:46.724Z,70.90
2018-09-11T10:28:15.176Z,70.80
2018-09-11T10:30:43.644Z,70.90
2018-09-11T10:33:13.320Z,70.50
2018-09-11T10:35:42.072Z,71.10
2018-09-11T10:38:10.508Z,69.80
2018-09-11T10:40:38.964Z,69.40
2018-09-11T10:43:07.446Z,69.90
2018-09-11T10:45:35.940Z,70.20
2018-09-11T10:48:04.456Z,69.90
2018-09-11T10:50:33.409Z,70.10
2018-09-11T10:53:02.017Z,70.00
2018-09-11T10:55:30.533Z,70.10
2018-09-11T10:57:58.964Z,70.70
2018-09-11T11:00:27.775Z,70.70
2018-09-11T11:02:56.168Z,70.40
2018-09-11T11:05:24.594Z,70.80
2018-09-11T11:07:53.352Z,70.10
2018-09-11T11:10:21.865Z,71.10
2018-09-11T11:12:50.292Z,70.80
2018-09-11T11:15:18.732Z,70.60
2018-09-11T11:17:47.267Z,70.50
2018-09-11T11:20:15.676Z,71.10
2018-09-11T11:22:44.120Z,70.80
2018-09-11T11:25:12.513Z,70.80
2018-09-11T11:27:40.919Z,71.30
2018-09-11T11:30:09.443Z,70.40
2018-09-11T11:32:37.940Z,70.90
2018-09-11T11:35:06.621Z,70.50
2018-09-11T11:37:35.222Z,70.10
2018-09-11T11:40:03.831Z,69.70
2018-09-11T11:42:32.205Z,70.00
2018-09-11T11:45:00.800Z,69.80
2018-09-11T11:47:29.212Z,70.00
2018-09-11T11:49:57.582Z,69.70
2018-09-11T11:52:26.124Z,70.30
2018-09-11T11:54:54.861Z,70.20
2018-09-11T11:57:23.311Z,70.20
2018-09-11T11:59:51.828Z,69.90
2018-09-11T12:02:20.409Z,69.80
2018-09-11T12:04:48.948Z,69.90
2018-09-11T12:07:17.385Z,70.10
2018-09-11T12:09:45.827Z,69.60
2018-09-11T12:12:14.220Z,69.60
2018-09-11T12:14:42.653Z,69.90
2018-09-11T12:17:11.139Z,69.80
2018-09-11T12:19:39.612Z,69.50
2018-09-11T12:22:08.160Z,69.80
2018-09-11T12:24:36.576Z,69.80
2018-09-11T12:27:05.053Z,70.30
2018-09-11T12:29:33.605Z,69.90
2018-09-11T12:32:02.996Z,70.10
2018-09-11T12:34:31.524Z,70.10
2018-09-11T12:37:00.451Z,70.60
2018-09-11T12:39:28.883Z,69.80
2018-09-11T12:41:57.577Z,69.90
2018-09-11T12:44:26.058Z,69.90
2018-09-11T12:46:54.798Z,69.40
2018-09-11T12:49:23.032Z,69.30
2018-09-11T12:51:51.488Z,69.50
2018-09-11T12:54:20.220Z,69.80
2018-09-11T12:56:48.836Z,69.60
2018-09-11T12:59:17.389Z,69.60
2018-09-11T13:01:45.741Z,69.90
2018-09-11T13:04:15.028Z,69.90
2018-09-11T13:06:47.748Z,70.00
2018-09-11T13:09:16.319Z,70.00
2018-09-11T13:11:44.748Z,69.80
2018-09-11T13:14:13.172Z,69.50
2018-09-11T13:16:41.537Z,69.40
2018-09-11T13:19:10.144Z,69.40
2018-09-11T13:21:38.616Z,69.40
2018-09-11T13:24:07.236Z,69.40
2018-09-11T13:26:35.820Z,69.40
2018-09-11T13:29:04.272Z,69.50
2018-09-11T13:31:32.757Z,69.50
2018-09-11T13:34:01.269Z,69.60
2018-09-11T13:36:29.694Z,69.60
2018-09-11T13:38:58.260Z,69.50
2018-09-11T13:41:26.863Z,69.50
2018-09-11T13:43:55.326Z,69.40
2018-09-11T13:46:23.897Z,69.40
2018-09-11T13:48:52.320Z,69.40
2018-09-11T13:51:20.828Z,69.40
2018-09-11T13:53:49.201Z,69.40
2018-09-11T13:56:17.751Z,69.40
2018-09-11T13:58:46.217Z,69.60
2018-09-11T14:01:14.732Z,69.40
2018-09-11T14:03:43.220Z,69.40
2018-09-11T14:06:11.713Z,69.40
2018-09-11T14:08:40.486Z,69.50
2018-09-11T14:11:08.989Z,69.50
2018-09-11T14:13:37.955Z,69.40
2018-09-11T14:16:06.491Z,69.40
2018-09-11T14:18:34.890Z,69.40
2018-09-11T14:21:03.337Z,69.40
2018-09-11T14:23:31.820Z,69.40
2018-09-11T14:26:00.360Z,69.40
2018-09-11T14:28:29.641Z,69.40
2018-09-11T14:30:58.194Z,69.40
2018-09-11T14:33:26.796Z,69.50
2018-09-11T14:35:55.249Z,69.40
2018-09-11T14:38:23.756Z,69.40
2018-09-11T14:40:52.107Z,69.30
2018-09-11T14:43:20.543Z,69.50
2018-09-11T14:45:48.969Z,69.40
2018-09-11T14:48:17.327Z,69.50
2018-09-11T14:50:46.027Z,69.30
2018-09-11T14:53:14.412Z,69.40
2018-09-11T14:55:42.904Z,69.30
2018-09-11T14:58:11.387Z,69.40
2018-09-11T15:00:39.890Z,69.30
2018-09-11T15:03:08.516Z,69.30
2018-09-11T15:05:37.013Z,69.20
2018-09-11T15:08:05.889Z,69.30
2018-09-11T15:10:34.395Z,69.30
2018-09-11T15:13:02.960Z,69.30
2018-09-11T15:15:31.369Z,69.30
2018-09-11T15:17:59.767Z,69.30
2018-09-11T15:20:28.288Z,69.30
2018-09-11T15:22:56.885Z,69.30
2018-09-11T15:25:26.097Z,69.30
2018-09-11T15:27:54.615Z,69.30
2018-09-11T15:30:23.065Z,69.40
2018-09-11T15:32:51.519Z,69.40
2018-09-11T15:35:19.880Z,69.40
2018-09-11T15:37:54.052Z,69.40
2018-09-11T15:40:22.475Z,69.50
2018-09-11T15:42:51.269Z,69.50
2018-09-11T15:45:19.662Z,69.50
2018-09-11T15:47:48.197Z,69.50
2018-09-11T15:50:16.673Z,69.60
2018-09-11T15:52:45.160Z,69.60
2018-09-11T15:55:13.663Z,69.60
2018-09-11T15:57:42.468Z,69.60
2018-09-11T16:00:11.008Z,69.60
2018-09-11T16:02:39.700Z,69.60
2018-09-11T16:05:08.157Z,69.50
2018-09-11T16:07:36.766Z,69.50
2018-09-11T16:10:06.191Z,69.60
2018-09-11T16:12:34.566Z,69.50
2018-09-11T16:15:03.074Z,69.50
2018-09-11T16:17:35.941Z,69.50
2018-09-11T16:20:04.515Z,69.50
2018-09-11T16:22:33.045Z,69.50
2018-09-11T16:25:01.444Z,69.50
2018-09-11T16:27:29.906Z,69.50
2018-09-11T16:29:58.453Z,69.50
2018-09-11T16:32:26.832Z,69.50
2018-09-11T16:34:55.467Z,69.50
2018-09-11T16:37:23.852Z,69.40
2018-09-11T16:39:52.424Z,69.40
2018-09-11T16:42:20.828Z,69.40
2018-09-11T16:44:50.273Z,69.40
2018-09-11T16:47:19.104Z,69.40
2018-09-11T16:49:47.619Z,69.40
2018-09-11T16:52:16.319Z,69.40
2018-09-11T16:54:44.895Z,69.40
2018-09-11T16:57:13.568Z,69.40
2018-09-11T16:59:42.124Z,69.40
2018-09-11T17:02:10.654Z,69.40
2018-09-11T17:04:39.063Z,69.40
2018-09-11T17:07:07.514Z,69.40
2018-09-11T17:09:36.018Z,69.40
2018-09-11T17:12:04.444Z,69.40
2018-09-11T17:14:32.971Z,69.40
2018-09-11T17:17:01.408Z,69.40
2018-09-11T17:19:29.877Z,69.40
2018-09-11T17:21:58.416Z,69.40
2018-09-11T17:24:26.916Z,69.40
2018-09-11T17:26:55.560Z,69.40
2018-09-11T17:29:25.698Z,69.40
2018-09-11T17:43:12.940Z,69.30
2018-09-11T17:45:41.434Z,69.40
2018-09-11T17:48:10.115Z,69.40
2018-09-11T17:50:38.659Z,69.40
2018-09-11T17:53:07.097Z,69.40
2018-09-11T17:55:35.596Z,69.40
2018-09-11T17:58:04.312Z,69.50
2018-09-11T18:00:32.908Z,69.50
2018-09-11T18:03:01.454Z,69.50
2018-09-11T18:05:41.259Z,69.50
2018-09-11T18:08:09.820Z,69.50
2018-09-11T18:10:38.222Z,69.50
2018-09-11T18:13:06.744Z,69.50
2018-09-11T18:15:35.426Z,69.50
2018-09-11T18:18:04.257Z,69.50
2018-09-11T18:20:32.792Z,69.50
2018-09-11T18:23:01.265Z,69.50
2018-09-11T18:25:29.973Z,69.50
2018-09-11T18:27:58.609Z,69.50
2018-09-11T18:30:30.189Z,69.50
2018-09-11T18:32:59.121Z,69.50
2018-09-11T18:35:27.804Z,69.50
2018-09-11T18:37:56.445Z,69.50
2018-09-11T18:40:25.152Z,69.60
2018-09-11T18:42:53.872Z,69.50
2018-09-11T18:45:22.530Z,69.50
2018-09-11T18:47:51.200Z,69.50
2018-09-11T18:50:19.661Z,69.50
2018-09-11T18:52:48.137Z,69.60
2018-09-11T18:55:17.280Z,69.60
2018-09-11T18:57:47.989Z,69.60
2018-09-11T19:00:22.564Z,69.50
2018-09-11T19:02:51.472Z,69.50
2018-09-11T19:05:20.616Z,69.60
2018-09-11T19:07:49.988Z,69.60
2018-09-11T19:10:18.665Z,69.60
2018-09-11T19:12:47.342Z,69.50
2018-09-11T19:15:15.725Z,69.60
2018-09-11T19:17:44.234Z,69.50
2018-09-11T19:20:12.965Z,69.60
2018-09-11T19:22:41.619Z,69.60
2018-09-11T19:25:10.025Z,69.60
2018-09-11T19:27:38.752Z,69.60
2018-09-11T19:30:09.059Z,69.70
2018-09-11T19:32:37.941Z,69.70
2018-09-11T19:35:07.295Z,69.60
2018-09-11T19:37:36.215Z,69.60
2018-09-11T19:40:04.933Z,69.60
2018-09-11T19:42:33.365Z,69.60
2018-09-11T19:45:02.256Z,69.60
2018-09-11T19:47:30.872Z,69.60
2018-09-11T19:49:59.626Z,69.60
2018-09-11T19:52:28.385Z,69.70
2018-09-11T19:54:57.147Z,69.60
2018-09-11T19:57:25.700Z,69.70
2018-09-11T19:59:54.230Z,69.70
2018-09-11T20:02:22.837Z,69.70
2018-09-11T20:04:51.561Z,69.70
2018-09-11T20:07:20.153Z,69.70
2018-09-11T20:09:48.640Z,69.60
2018-09-11T20:12:17.300Z,69.70
2018-09-11T20:14:45.796Z,69.80
2018-09-11T20:17:14.148Z,69.70
2018-09-11T20:19:42.761Z,69.80
2018-09-11T20:22:12.457Z,69.80
2018-09-11T20:24:40.841Z,69.70
2018-09-11T20:27:09.817Z,69.70
2018-09-11T20:29:38.401Z,69.80
2018-09-11T20:32:07.027Z,69.70
2018-09-11T20:34:35.520Z,69.80
2018-09-11T20:37:07.579Z,69.60
2018-09-11T20:39:36.098Z,69.70
2018-09-11T20:42:04.504Z,69.70
2018-09-11T20:44:33.361Z,69.80
2018-09-11T20:47:02.061Z,70.10
2018-09-11T20:49:30.669Z,70.00
2018-09-11T20:51:59.413Z,69.70
2018-09-11T20:54:27.880Z,69.80
2018-09-11T20:56:56.320Z,69.80
2018-09-11T20:59:24.865Z,69.70
2018-09-11T21:01:53.502Z,70.10
2018-09-11T21:04:22.341Z,70.00
2018-09-11T21:06:50.828Z,69.90
2018-09-11T21:09:24.449Z,69.90
2018-09-11T21:11:53.948Z,69.90
2018-09-11T21:14:22.456Z,69.70
2018-09-11T21:16:50.918Z,69.80
2018-09-11T21:19:19.592Z,70.00
2018-09-11T21:21:48.133Z,70.40
2018-09-11T21:24:16.780Z,70.30
2018-09-11T21:26:45.296Z,70.40
2018-09-11T21:29:13.973Z,70.20
2018-09-11T21:31:42.608Z,70.60
2018-09-11T21:34:11.164Z,70.50
2018-09-11T21:36:39.622Z,70.50
2018-09-11T21:39:10.102Z,70.10
2018-09-11T21:41:38.612Z,70.70
2018-09-11T21:44:07.077Z,70.70
2018-09-11T21:46:35.560Z,70.20
2018-09-11T21:49:04.245Z,70.00
2018-09-11T21:51:33.211Z,70.60
2018-09-11T21:54:01.825Z,70.80
2018-09-11T21:56:30.536Z,70.70
2018-09-11T21:58:59.285Z,70.10
2018-09-11T22:01:33.202Z,70.80
2018-09-11T22:04:01.890Z,70.90
2018-09-11T22:06:45.495Z,70.90
2018-09-11T22:09:20.633Z,70.80
2018-09-11T22:11:49.232Z,70.50
2018-09-11T22:14:17.900Z,70.90
2018-09-11T22:16:46.314Z,71.00
2018-09-11T22:19:15.149Z,71.00
2018-09-11T22:21:43.548Z,71.00
2018-09-11T22:24:12.032Z,71.00
2018-09-11T22:26:40.732Z,71.00
2018-09-11T22:29:09.188Z,70.60
2018-09-11T22:31:37.892Z,70.90
2018-09-11T22:34:06.425Z,70.80
2018-09-11T22:36:35.048Z,71.00
2018-09-11T22:39:04.316Z,71.00
2018-09-11T22:41:33.045Z,70.80
2018-09-11T22:44:02.024Z,71.10
2018-09-11T22:46:30.645Z,70.80
2018-09-11T22:48:59.286Z,71.10
2018-09-11T22:51:27.761Z,71.20
2018-09-11T22:53:56.448Z,71.20
2018-09-11T22:56:25.323Z,70.40
2018-09-11T22:58:53.856Z,71.10
2018-09-11T23:01:22.509Z,71.20
2018-09-11T23:03:51.057Z,71.20
2018-09-11T23:06:19.721Z,71.20
2018-09-11T23:08:48.144Z,71.20
2018-09-11T23:11:16.564Z,71.00
2018-09-11T23:13:45.184Z,71.30
2018-09-11T23:16:13.800Z,71.30
2018-09-11T23:18:48.216Z,71.30
2018-09-11T23:21:17.231Z,71.20
2018-09-11T23:23:45.793Z,71.20
2018-09-11T23:26:14.774Z,71.20
2018-09-11T23:28:43.404Z,71.30
2018-09-11T23:31:12.127Z,71.30
2018-09-11T23:33:40.630Z,71.30
2018-09-11T23:36:09.045Z,71.20
2018-09-11T23:38:42.179Z,71.40
2018-09-11T23:41:10.757Z,71.40
2018-09-11T23:43:42.785Z,71.40
2018-09-11T23:46:11.368Z,71.30
2018-09-11T23:48:39.873Z,71.40
2018-09-11T23:51:08.520Z,71.30
2018-09-11T23:53:37.223Z,71.30
2018-09-11T23:56:05.756Z,71.30
2018-09-11T23:58:34.477Z,71.30
